createdAt,value
2023-05-09T00:02:00.013Z,2.83
2023-05-09T00:05:03.978Z,3.03
2023-05-09T00:08:07.717Z,3.20
2023-05-09T00:11:11.322Z,2.50
2023-05-09T00:14:14.770Z,3.03
2023-05-09T00:17:18.793Z,2.70
2023-05-09T00:20:22.198Z,2.80
2023-05-09T00:23:25.791Z,3.00
2023-05-09T00:26:29.377Z,3.10
2023-05-09T00:29:32.812Z,2.72
2023-05-09T00:32:36.932Z,2.90
2023-05-09T00:35:40.494Z,3.30
2023-05-09T00:38:43.935Z,2.95
2023-05-09T00:41:48.059Z,3.10
2023-05-09T00:44:51.595Z,4.10
2023-05-09T00:47:55.593Z,2.97
2023-05-09T00:50:59.218Z,3.60
2023-05-09T00:54:02.734Z,3.20
2023-05-09T00:57:06.223Z,2.47
2023-05-09T01:00:13.599Z,2.55
2023-05-09T01:03:17.793Z,2.80
2023-05-09T01:06:32.960Z,2.28
2023-05-09T01:09:36.460Z,2.33
2023-05-09T01:12:54.856Z,2.53
2023-05-09T01:15:58.535Z,2.40
2023-05-09T01:19:07.725Z,2.40
2023-05-09T01:22:14.283Z,2.22
2023-05-09T01:26:02.556Z,2.08
2023-05-09T01:29:11.876Z,2.28
2023-05-09T01:32:23.105Z,2.10
2023-05-09T01:35:30.292Z,1.90
2023-05-09T01:38:34.329Z,1.92
2023-05-09T01:41:38.617Z,1.98
2023-05-09T01:44:44.452Z,2.20
2023-05-09T01:47:49.362Z,2.13
2023-05-09T01:50:54.920Z,1.90
2023-05-09T01:54:00.331Z,1.90
2023-05-09T01:57:06.322Z,2.00
2023-05-09T02:00:13.099Z,2.28
2023-05-09T02:03:16.718Z,1.95
2023-05-09T02:06:23.730Z,2.20
2023-05-09T02:09:27.848Z,2.00
2023-05-09T02:12:31.507Z,2.00
2023-05-09T02:15:35.300Z,1.83
2023-05-09T02:18:38.642Z,1.95
2023-05-09T02:21:42.648Z,1.90
2023-05-09T02:24:47.444Z,1.50
2023-05-09T02:27:52.251Z,2.00
2023-05-09T02:30:58.852Z,1.95
2023-05-09T02:34:04.884Z,2.00
2023-05-09T02:37:09.094Z,2.00
2023-05-09T02:40:13.957Z,1.77
2023-05-09T02:43:17.365Z,2.60
2023-05-09T02:46:20.789Z,1.80
2023-05-09T02:49:32.152Z,1.90
2023-05-09T02:52:37.362Z,2.20
2023-05-09T02:55:40.778Z,2.10
2023-05-09T02:58:51.006Z,2.00
2023-05-09T03:01:54.846Z,1.75
2023-05-09T03:04:58.625Z,1.88
2023-05-09T03:08:02.062Z,1.80
2023-05-09T03:11:05.946Z,1.80
2023-05-09T03:14:10.908Z,1.80
2023-05-09T03:17:21.338Z,1.85
2023-05-09T03:20:26.189Z,1.98
2023-05-09T03:23:29.544Z,1.90
2023-05-09T03:26:33.169Z,1.92
2023-05-09T03:29:36.898Z,1.90
2023-05-09T03:32:41.369Z,2.10
2023-05-09T03:35:44.842Z,2.20
2023-05-09T03:38:48.288Z,1.97
2023-05-09T03:41:51.849Z,2.47
2023-05-09T03:44:55.442Z,1.92
2023-05-09T03:47:59.431Z,2.50
2023-05-09T03:51:03.161Z,2.55
2023-05-09T03:54:09.656Z,2.07
2023-05-09T03:57:13.203Z,2.00
2023-05-09T04:00:17.015Z,1.90
2023-05-09T04:03:32.578Z,2.30
2023-05-09T04:06:37.044Z,2.60
2023-05-09T04:09:43.251Z,2.00
2023-05-09T04:12:46.811Z,2.20
2023-05-09T04:15:52.550Z,2.10
2023-05-09T04:18:56.113Z,2.10
2023-05-09T04:21:59.441Z,2.33
2023-05-09T04:25:04.438Z,2.30
2023-05-09T04:28:08.468Z,2.35
2023-05-09T04:31:14.982Z,2.22
2023-05-09T04:34:21.539Z,2.13
2023-05-09T04:37:25.025Z,2.60
2023-05-09T04:40:29.057Z,2.30
2023-05-09T04:43:35.945Z,2.22
2023-05-09T04:46:39.784Z,2.38
2023-05-09T04:49:43.799Z,2.60
2023-05-09T04:52:47.202Z,3.00
2023-05-09T04:55:52.033Z,2.37
2023-05-09T04:58:56.152Z,2.50
2023-05-09T05:01:59.620Z,2.60
2023-05-09T05:05:11.443Z,2.75
2023-05-09T05:08:19.481Z,2.58
2023-05-09T05:11:24.892Z,2.50
2023-05-09T05:14:28.480Z,2.40
2023-05-09T05:17:32.535Z,2.58
2023-05-09T06:38:58.836Z,2.22
2023-05-09T06:42:02.559Z,2.03
2023-05-09T06:45:14.669Z,2.80
2023-05-09T06:48:18.869Z,2.20
2023-05-09T06:51:23.446Z,1.90
2023-05-09T06:54:27.038Z,2.42
2023-05-09T06:57:31.039Z,2.22
2023-05-09T07:00:35.058Z,2.17
2023-05-09T07:03:39.136Z,2.30
2023-05-09T07:06:43.093Z,2.28
2023-05-09T07:09:49.179Z,2.13
2023-05-09T07:12:55.187Z,1.92
2023-05-09T07:16:00.552Z,2.30
2023-05-09T07:19:04.111Z,2.20
2023-05-09T07:22:07.520Z,1.95
2023-05-09T07:25:11.094Z,2.35
2023-05-09T07:28:14.439Z,2.10
2023-05-09T07:31:19.033Z,2.50
2023-05-09T07:34:28.102Z,2.20
2023-05-09T07:37:32.191Z,2.47
2023-05-09T07:40:37.269Z,2.45
2023-05-09T07:43:40.618Z,2.20
2023-05-09T07:46:44.128Z,2.95
2023-05-09T07:49:48.164Z,2.70
2023-05-09T07:52:52.997Z,2.20
2023-05-09T07:55:58.643Z,2.40
2023-05-09T07:59:03.455Z,2.42
2023-05-09T08:02:07.448Z,2.55
2023-05-09T08:05:14.550Z,2.80
2023-05-09T08:08:18.022Z,2.58
2023-05-09T08:11:21.513Z,2.40
2023-05-09T08:14:24.980Z,2.10
2023-05-09T08:17:28.476Z,2.58
2023-05-09T08:20:31.946Z,2.57
2023-05-09T08:23:35.892Z,2.38
2023-05-09T08:26:39.737Z,2.65
2023-05-09T08:29:44.154Z,2.25
2023-05-09T08:32:48.456Z,2.70
2023-05-09T08:35:53.640Z,2.77
2023-05-09T08:38:58.300Z,2.70
2023-05-09T08:42:03.301Z,2.30
2023-05-09T08:45:15.141Z,1.88
2023-05-09T08:48:19.878Z,2.00
2023-05-09T08:51:23.971Z,2.13
2023-05-09T08:54:27.795Z,1.90
2023-05-09T08:57:35.343Z,2.20
2023-05-09T09:00:39.476Z,2.10
2023-05-09T09:03:47.779Z,2.38
2023-05-09T09:06:53.345Z,2.23
2023-05-09T09:09:57.869Z,1.90
2023-05-09T09:13:05.345Z,2.25
2023-05-09T09:16:14.773Z,2.40
2023-05-09T09:19:20.390Z,2.10
2023-05-09T09:22:24.137Z,1.90
2023-05-09T09:25:27.394Z,2.10
2023-05-09T09:28:31.164Z,2.30
2023-05-09T09:31:34.875Z,2.42
2023-05-09T09:34:38.376Z,2.03
2023-05-09T09:37:43.622Z,2.17
2023-05-09T09:40:53.477Z,2.10
2023-05-09T09:43:58.861Z,2.20
2023-05-09T09:47:02.336Z,1.90
2023-05-09T09:50:13.775Z,2.00
2023-05-09T09:53:20.012Z,2.30
2023-05-09T09:56:37.947Z,2.25
2023-05-09T09:59:41.413Z,2.28
2023-05-09T10:02:55.389Z,2.00
2023-05-09T10:06:03.018Z,2.20
2023-05-09T10:09:07.123Z,3.67
2023-05-09T10:12:10.651Z,2.10
2023-05-09T10:15:18.805Z,2.30
2023-05-09T10:18:31.502Z,2.28
2023-05-09T10:21:38.083Z,2.67
2023-05-09T10:24:46.745Z,2.50
2023-05-09T10:27:54.084Z,2.33
2023-05-09T10:31:20.112Z,2.40
2023-05-09T10:34:25.813Z,2.47
2023-05-09T10:37:30.991Z,2.20
2023-05-09T10:40:35.699Z,2.30
2023-05-09T10:43:39.519Z,2.40
2023-05-09T10:46:43.235Z,2.20
2023-05-09T10:49:47.086Z,2.22
2023-05-09T10:53:07.384Z,2.47
2023-05-09T10:56:24.165Z,2.17
2023-05-09T10:59:36.399Z,2.40
2023-05-09T11:02:39.929Z,1.80
2023-05-09T11:05:43.492Z,2.10
2023-05-09T11:08:48.783Z,2.08
2023-05-09T11:11:54.381Z,2.00
2023-05-09T11:15:06.425Z,2.45
2023-05-09T11:18:13.088Z,2.38
2023-05-09T11:21:20.851Z,2.05
2023-05-09T11:24:25.033Z,2.40
2023-05-09T11:27:29.343Z,2.40
2023-05-09T11:30:41.174Z,2.15
2023-05-09T11:33:49.196Z,2.20
2023-05-09T11:37:10.463Z,2.17
2023-05-09T11:40:15.309Z,1.88
2023-05-09T11:43:19.575Z,2.10
2023-05-09T11:46:23.428Z,1.90
2023-05-09T11:49:29.984Z,2.00
2023-05-09T11:52:35.056Z,1.98
2023-05-09T11:55:41.374Z,2.13
2023-05-09T11:58:46.976Z,1.77
2023-05-09T12:01:50.700Z,2.10
2023-05-09T12:04:54.964Z,2.30
2023-05-09T12:08:04.922Z,1.83
2023-05-09T12:11:09.840Z,2.30
2023-05-09T12:14:28.288Z,2.10
2023-05-09T12:17:32.094Z,2.10
2023-05-09T12:20:41.945Z,1.85
2023-05-09T12:23:51.523Z,2.10
2023-05-09T12:27:01.101Z,2.00
2023-05-09T12:30:10.812Z,2.10
2023-05-09T12:33:14.667Z,1.75
2023-05-09T12:36:18.180Z,2.13
2023-05-09T12:39:23.206Z,1.90
2023-05-09T12:42:29.333Z,2.22
2023-05-09T12:45:33.879Z,1.80
2023-05-09T12:48:39.238Z,1.90
2023-05-09T12:51:50.528Z,1.90
2023-05-09T12:54:54.628Z,2.10
2023-05-09T12:58:03.777Z,1.90
2023-05-09T13:01:07.800Z,1.73
2023-05-09T13:04:12.773Z,2.03
2023-05-09T13:07:16.645Z,2.20
2023-05-09T13:10:28.702Z,2.00
2023-05-09T13:13:32.928Z,2.05
2023-05-09T13:16:36.575Z,2.00
2023-05-09T13:19:39.863Z,2.25
2023-05-09T13:22:46.593Z,1.90
2023-05-09T13:25:50.052Z,2.05
2023-05-09T13:28:53.513Z,2.33
2023-05-09T13:31:57.034Z,2.13
2023-05-09T13:35:00.566Z,2.10
2023-05-09T13:38:04.193Z,2.53
2023-05-09T13:41:08.473Z,2.08
2023-05-09T13:44:11.942Z,2.40
2023-05-09T13:47:15.229Z,1.93
2023-05-09T13:50:18.758Z,2.00
2023-05-09T13:53:22.215Z,2.38
2023-05-09T13:56:26.234Z,1.88
2023-05-09T13:59:31.142Z,2.08
2023-05-09T14:02:34.694Z,2.53
2023-05-09T14:05:38.077Z,2.38
2023-05-09T14:08:41.445Z,2.20
2023-05-09T14:11:45.129Z,2.10
2023-05-09T14:14:48.518Z,2.20
2023-05-09T14:17:51.973Z,2.00
2023-05-09T14:20:55.266Z,2.10
2023-05-09T14:23:58.588Z,2.20
2023-05-09T14:27:02.252Z,2.38
2023-05-09T14:30:06.656Z,2.20
2023-05-09T14:33:10.229Z,2.30
2023-05-09T14:36:13.863Z,2.70
2023-05-09T14:39:17.439Z,2.40
2023-05-09T14:42:21.564Z,2.38
2023-05-09T14:45:25.355Z,2.60
2023-05-09T14:48:29.108Z,2.73
2023-05-09T14:51:33.431Z,2.38
2023-05-09T14:54:37.144Z,2.78
2023-05-09T14:57:40.469Z,2.30
2023-05-09T15:00:44.275Z,2.30
2023-05-09T15:03:48.171Z,2.00
2023-05-09T15:06:51.537Z,2.10
2023-05-09T15:09:55.094Z,2.40
2023-05-09T15:12:58.412Z,2.30
2023-05-09T15:16:01.772Z,1.83
2023-05-09T15:19:05.822Z,2.40
2023-05-09T15:22:09.223Z,2.40
2023-05-09T15:25:12.925Z,2.20
2023-05-09T15:28:16.380Z,2.30
2023-05-09T15:31:21.809Z,2.22
2023-05-09T15:34:25.371Z,2.47
2023-05-09T15:37:28.749Z,1.98
2023-05-09T15:40:32.079Z,4.75
2023-05-09T15:43:35.433Z,2.88
2023-05-09T15:46:38.797Z,2.65
2023-05-09T15:49:42.349Z,2.20
2023-05-09T15:52:45.882Z,4.13
2023-05-09T15:55:49.500Z,3.08
2023-05-09T15:58:52.780Z,2.50
2023-05-09T16:01:56.350Z,3.00
2023-05-09T16:04:59.767Z,2.23
2023-05-09T16:08:03.085Z,2.60
2023-05-09T16:11:06.714Z,2.47
2023-05-09T16:14:11.711Z,2.20
2023-05-09T16:17:15.221Z,2.38
2023-05-09T16:20:18.893Z,2.67
2023-05-09T16:23:23.626Z,2.40
2023-05-09T16:26:27.222Z,2.60
2023-05-09T16:29:31.002Z,2.60
2023-05-09T16:32:34.594Z,2.25
2023-05-09T16:35:38.046Z,2.27
2023-05-09T16:38:41.475Z,2.55
2023-05-09T16:41:44.832Z,2.50
2023-05-09T16:44:48.297Z,2.47
2023-05-09T16:47:51.651Z,1.85
2023-05-09T16:50:55.056Z,2.13
2023-05-09T16:53:58.623Z,2.33
2023-05-09T16:57:02.092Z,4.28
2023-05-09T17:00:08.052Z,3.55
2023-05-09T17:03:14.049Z,4.93
2023-05-09T17:06:17.606Z,3.73
2023-05-09T17:09:21.150Z,4.57
2023-05-09T17:12:24.671Z,10.20
2023-05-09T17:15:29.451Z,9.13
2023-05-09T17:18:37.739Z,3.75
2023-05-09T17:21:41.792Z,3.60
2023-05-09T17:24:45.214Z,2.75
2023-05-09T17:27:49.454Z,2.92
2023-05-09T17:30:53.016Z,2.67
2023-05-09T17:33:56.515Z,4.22
2023-05-09T17:37:02.351Z,2.90
2023-05-09T17:40:08.335Z,3.28
2023-05-09T17:43:13.389Z,2.95
2023-05-09T17:46:16.858Z,3.45
2023-05-09T17:49:20.357Z,3.50
2023-05-09T17:52:23.716Z,3.07
2023-05-09T17:55:27.191Z,4.30
2023-05-09T17:58:30.622Z,4.50
2023-05-09T18:01:34.210Z,3.50
2023-05-09T18:04:37.752Z,3.38
2023-05-09T18:07:41.260Z,3.20
2023-05-09T18:10:44.726Z,3.28
2023-05-09T18:13:48.412Z,6.25
2023-05-09T18:16:51.840Z,20.48
2023-05-09T18:19:55.787Z,14.00
2023-05-09T18:22:59.744Z,15.70
2023-05-09T18:26:03.561Z,29.15
2023-05-09T18:29:07.106Z,17.70
2023-05-09T18:32:12.113Z,18.40
2023-05-09T18:35:16.201Z,15.70
2023-05-09T18:38:19.815Z,10.60
2023-05-09T18:41:24.954Z,6.57
2023-05-09T18:44:29.657Z,3.97
2023-05-09T18:47:33.393Z,3.80
2023-05-09T18:50:37.284Z,4.35
2023-05-09T18:53:41.636Z,3.80
2023-05-09T18:56:46.020Z,8.57
2023-05-09T18:59:52.012Z,6.53
2023-05-09T19:02:55.683Z,3.83
2023-05-09T19:06:00.080Z,3.30
2023-05-09T19:09:04.452Z,3.30
2023-05-09T19:12:09.795Z,3.15
2023-05-09T19:15:13.320Z,3.40
2023-05-09T19:18:16.659Z,3.67
2023-05-09T19:21:20.256Z,3.72
2023-05-09T19:24:23.863Z,3.30
2023-05-09T19:27:28.060Z,3.70
2023-05-09T19:30:31.330Z,17.85
2023-05-09T19:33:35.002Z,27.65
2023-05-09T19:36:38.790Z,13.07
2023-05-09T19:39:42.344Z,4.37
2023-05-09T19:42:46.059Z,4.03
2023-05-09T19:45:49.739Z,4.13
2023-05-09T19:48:53.429Z,4.22
2023-05-09T19:51:57.232Z,3.47
2023-05-09T19:55:01.432Z,3.20
2023-05-09T19:58:06.796Z,2.72
2023-05-09T20:01:10.488Z,3.15
2023-05-09T20:04:14.121Z,3.17
2023-05-09T20:07:18.309Z,2.85
2023-05-09T20:10:21.821Z,2.50
2023-05-09T20:13:25.322Z,3.08
2023-05-09T20:16:28.845Z,3.17
2023-05-09T20:19:33.288Z,3.22
2023-05-09T20:22:37.331Z,3.63
2023-05-09T20:25:40.747Z,2.70
2023-05-09T20:28:44.484Z,2.83
2023-05-09T20:31:48.013Z,3.47
2023-05-09T20:34:51.562Z,2.72
2023-05-09T20:37:55.189Z,2.88
2023-05-09T20:40:58.732Z,2.97
2023-05-09T20:44:04.329Z,2.83
2023-05-09T20:47:07.891Z,2.92
2023-05-09T20:50:11.804Z,2.70
2023-05-09T20:53:15.971Z,2.80
2023-05-09T20:56:19.707Z,2.87
2023-05-09T20:59:23.099Z,2.78
2023-05-09T21:02:26.727Z,3.00
2023-05-09T21:05:30.269Z,3.00
2023-05-09T21:08:33.746Z,2.88
2023-05-09T21:11:38.503Z,2.80
2023-05-09T21:14:41.966Z,2.97
2023-05-09T21:17:45.481Z,3.72
2023-05-09T21:20:48.957Z,4.15
2023-05-09T21:23:52.375Z,3.15
2023-05-09T21:26:56.074Z,3.20
2023-05-09T21:29:59.530Z,2.92
2023-05-09T21:33:04.115Z,3.10
2023-05-09T21:36:08.054Z,3.35
2023-05-09T21:39:11.833Z,3.33
2023-05-09T21:42:15.397Z,3.37
2023-05-09T21:45:19.183Z,2.97
2023-05-09T21:48:22.715Z,2.78
2023-05-09T21:51:26.377Z,2.78
2023-05-09T21:54:29.801Z,3.15
2023-05-09T21:57:33.145Z,2.87
2023-05-09T22:00:36.541Z,3.25
2023-05-09T22:03:40.004Z,2.90
2023-05-09T22:06:43.563Z,3.35
2023-05-09T22:09:46.943Z,3.15
2023-05-09T22:12:50.453Z,2.87
2023-05-09T22:15:53.888Z,3.50
2023-05-09T22:18:57.404Z,3.72
2023-05-09T22:22:00.887Z,3.00
2023-05-09T22:25:07.328Z,3.95
2023-05-09T22:28:10.959Z,3.43
2023-05-09T22:31:14.287Z,3.80
2023-05-09T22:34:17.675Z,3.47
2023-05-09T22:37:22.481Z,4.03
2023-05-09T22:40:26.934Z,3.90
2023-05-09T22:43:38.746Z,3.67
2023-05-09T22:46:42.851Z,3.72
2023-05-09T22:49:46.465Z,3.67
2023-05-09T22:52:49.824Z,3.67
2023-05-09T22:55:54.872Z,4.28
2023-05-09T22:58:58.967Z,3.57
2023-05-09T23:02:02.587Z,4.20
2023-05-09T23:05:06.484Z,3.92
2023-05-09T23:08:10.154Z,4.10
2023-05-09T23:11:13.509Z,3.88
2023-05-09T23:14:16.835Z,4.20
2023-05-09T23:17:20.187Z,3.55
2023-05-09T23:20:23.514Z,3.15
2023-05-09T23:23:27.250Z,3.85
2023-05-09T23:26:30.614Z,3.80
2023-05-09T23:29:33.948Z,3.60
2023-05-09T23:32:37.428Z,3.85
2023-05-09T23:35:40.884Z,3.78
2023-05-09T23:38:44.231Z,3.60
2023-05-09T23:41:47.669Z,3.83
2023-05-09T23:44:51.031Z,4.10
2023-05-09T23:47:54.466Z,3.70
2023-05-09T23:50:57.831Z,3.75
2023-05-09T23:54:01.248Z,4.00
2023-05-09T23:57:04.618Z,3.80
